Smoke Tree, California
Current Conditions -  °F | °C
As of 7:53 AM on Friday 21 Nov 2014 (Local Time) from KPSP Reporting Station
Scattered Clouds Scattered Clouds  
Wind Chill: 57°   Ceiling: Unl
Heat Index: 57°   Visibility: 10mi
Dew Point: 50°   Wind: 0mph
Humidity: 77%   Direction: NA
Pressure: 29.94"   Gusts: NA
Location:  33.8563°N, 116.571°W
Report Text: KPSP 211553Z 00000KT 10SM FEW100 SCT140 14/10 A2994 RMK AO2 SLP138 T01390100
Loading
Personal Weather Stations






























Interactive Weather Map New forecast layout! Learn more

10-Day Weather Forecast

Advertisements
Track Severe Weather on mobile